Αναφορές METAR

 

LGKZ - Kozani (civ/Army, Greece
Distance from station: SW 41km
Updated: 17/05/2022 16:50
Partly cloudy
Partly cloudy
 Wind from calm
Wind: Calm
Temperature: 27°C
Dew Point: 4°C
Humidity: 23%
Barometer: 1016 hPa
Clouds: Partly cloudy
Visibility: 10 km
Cloud details: Few Clouds 762 m
Partly cloudy 2134 m
2022/05/17 13:50 LGKZ 171350Z 00000KT 9999 FEW025 SCT070 27/04 Q1016
LGTS - Thessaloniki/Mik, Greece
Distance from station: E 64km
Updated: 17/05/2022 17:20
Few Clouds
Few Clouds
 Wind from S
Wind: S 20 km/h
Temperature: 27°C
Heat Index: 28°C
Dew Point: 16°C
Humidity: 51%
Barometer: 1014 hPa
Clouds: Few Clouds
Visibility: 10 km
Cloud details: Few Clouds 914 m
2022/05/17 14:20 LGTS 171420Z 17011KT 9999 FEW030TCU 27/16 Q1014 NOSIG
 
LGIO - Ioannina, Greece
Distance from station: SW 149km
Updated: 17/05/2022 17:20
Light rain, Mostly cloudy
Light rain, Mostly cloudy
 Wind from SE
Wind: SE 4 km/h
Temperature: 19°C
Dew Point: 16°C
Humidity: 83%
Barometer: 1017 hPa
Summary: Light rain
Clouds: Mostly cloudy
Visibility: 10 km
Cloud details: Few Clouds 1372 m
Mostly cloudy 1524 m
2022/05/17 14:20 LGIO 171420Z 14002KT 9999 -RA FEW045TCU BKN050 19/16 Q1017
LGBL - Nea Anchialos, Greece
Distance from station: SSE 154km
Updated: 17/05/2022 17:20
Few Clouds
Few Clouds
 Wind from N
Wind: N 9 km/h
Temperature: 24°C
Dew Point: 16°C
Humidity: 61%
Barometer: 1014 hPa
Clouds: Few Clouds
Visibility: 10 km
Cloud details: Few Clouds 1219 m
2022/05/17 14:20 LGBL 171420Z 01005KT 9999 FEW040 24/16 Q1014
 
LGSK - Skiathos Island, Greece
Distance from station: SE 185km
Updated: 17/05/2022 16:50
Few Clouds
Few Clouds
 Wind from S
Wind: S 9 km/h
Temperature: 26°C
Dew Point: 18°C
Humidity: 61%
Barometer: 1015 hPa
Clouds: Few Clouds
Visibility: 10 km
Cloud details: Few Clouds 549 m
2022/05/17 13:50 LGSK 171350Z 19005KT 9999 FEW018 26/18 Q1015
LGKV - Kavala/Chrisoupo, Greece
Distance from station: ENE 208km
Updated: 17/05/2022 17:20
Few Clouds
Few Clouds
 Wind from WSW
Wind: WSW 11 km/h
Temperature: 25°C
Dew Point: 15°C
Humidity: 54%
Barometer: 1014 hPa
Clouds: Few Clouds
Visibility: 10 km
Cloud details: Few Clouds 914 m
2022/05/17 14:20 LGKV 171420Z 25006KT 9999 FEW030 25/15 Q1014
 
LGPZ - Preveza/Aktion, Greece
Distance from station: SW 217km
Updated: 17/05/2022 17:20
Partly cloudy
Partly cloudy
 Wind from W
Wind: W 19 km/h
Temperature: 24°C
Dew Point: 19°C
Humidity: 74%
Barometer: 1015 hPa
Clouds: Partly cloudy
Visibility: 10 km
Cloud details: Few Clouds 610 m
Partly cloudy 914 m
2022/05/17 14:20 LGPZ 171420Z 26010KT 9999 FEW020TCU SCT030 24/19 Q1015
LGKR - Ioannis Kapodist, Greece
Distance from station: WSW 219km
Updated: 17/05/2022 17:20
Few Clouds
Few Clouds
 Wind from WNW
Wind: WNW 7 km/h
Temperature: 26°C
Dew Point: 19°C
Humidity: 65%
Barometer: 1015 hPa
Clouds: Few Clouds
Visibility: 10 km
Cloud details: Few Clouds 762 m
2022/05/17 14:20 LGKR 171420Z 29004KT 9999 FEW025 26/19 Q1015 NOSIG
 
LGSY - Skiros, Greece
Distance from station: SE 261km
Updated: 17/05/2022 16:50
Clear
Clear
 Wind from E
Wind: E 15 km/h
Temperature: 25°C
Dew Point: 13°C
Humidity: 47%
Barometer: 1015 hPa
Summary: Clear
Visibility: greater than 10 km
2022/05/17 13:50 LGSY 171350Z 08008KT CAVOK 25/13 Q1015 BLU
LGLM - Limnos Island Ar, Greece
Distance from station: ESE 266km
Updated: 17/05/2022 17:20
Clear
Clear
 Wind from S
Wind: S 7 km/h
Temperature: 27°C
Heat Index: 28°C
Dew Point: 16°C
Humidity: 51%
Barometer: 1014 hPa
Summary: Clear
Visibility: greater than 10 km
2022/05/17 14:20 LGLM 171420Z 18004KT CAVOK 27/16 Q1014
 
LGRX - Araxos (civ/Afb), Greece
Distance from station: SSW 271km
Updated: 17/05/2022 17:20
Few Clouds
Few Clouds
 Wind from W
Wind: W 11 km/h
Temperature: 25°C
Dew Point: 18°C
Humidity: 65%
Barometer: 1015 hPa
Clouds: Few Clouds
Visibility: 10 km
Cloud details: Few Clouds 610 m
2022/05/17 14:20 LGRX 171420Z 26006KT 9999 FEW020TCU 25/18 Q1015
LGEL - Elefsis (hel-Afb, Greece
Distance from station: SSE 297km
Updated: 17/05/2022 17:20
Few Clouds
Few Clouds
 Wind from S
Wind: S 15 km/h
Temperature: 26°C
Dew Point: 15°C
Humidity: 51%
Barometer: 1015 hPa
Clouds: Few Clouds
Visibility: 10 km
Cloud details: Few Clouds 762 m
2022/05/17 14:20 LGEL 171420Z 19008KT 9999 FEW025 26/15 Q1015
 
LGAD - Andravida (civ/A, Greece
Distance from station: SSW 301km
Updated: 17/05/2022 17:20
Few Clouds
Few Clouds
 Wind from WNW
Wind: WNW 11 km/h
Temperature: 25°C
Dew Point: 18°C
Humidity: 65%
Barometer: 1016 hPa
Clouds: Few Clouds
Visibility: 10 km
Cloud details: Few Clouds 610 m
2022/05/17 14:20 LGAD 171420Z 30006KT 9999 FEW020TCU 25/18 Q1016
LGKF - Kefallinia, Greece
Distance from station: SSW 305km
Updated: 17/05/2022 16:50
Few Clouds
Few Clouds
 Wind from W
Wind: W 20 km/h
Temperature: 23°C
Dew Point: 22°C
Humidity: 94%
Barometer: 1016 hPa
Clouds: Few Clouds
Visibility: 10 km
Cloud details: Few Clouds 488 m
2022/05/17 13:50 LGKF 171350Z 27011KT 9999 FEW016 23/22 Q1016